Time;durP1;ratioP1;P1;durP2;ratioP2;P2;SDS_P1;SDS_P2;PMS_P1;PMS_P2;Temp;Humidity;BMP_temperature;BMP_pressure;BME280_temperature;BME280_humidity;BME280_pressure;Samples;Min_cycle;Max_cycle;Signal;HPM_P1;HPM_P2
2021/06/15 00:01:05;;;;;;;;;;;17.20;99.90;;;;;;5083511;28;19904;-78
2021/06/15 00:03:30;;;;;;;;;;;17.10;99.90;;;;;;5083870;28;19991;-79
2021/06/15 00:05:56;;;;;;;;;;;17.10;99.90;;;;;;5081740;28;19971;-79
2021/06/15 00:08:21;;;;;;;;;;;17.00;99.90;;;;;;5081156;28;19908;-78
2021/06/15 00:10:47;;;;;;;;;;;17.00;99.90;;;;;;5081817;28;19904;-79
2021/06/15 00:13:13;;;;;;;;;;;17.00;99.90;;;;;;5082871;28;19904;-78
2021/06/15 00:15:40;;;;;;;;;;;17.00;99.90;;;;;;5081038;28;20003;-80
2021/06/15 00:18:06;;;;;;;;;;;17.00;99.90;;;;;;5081325;28;19957;-79
2021/06/15 00:20:31;;;;;;;;;;;17.00;99.90;;;;;;5083242;28;19915;-78
2021/06/15 00:22:57;;;;;;;;;;;17.00;99.90;;;;;;5081860;28;19904;-78
2021/06/15 00:25:22;;;;;;;;;;;16.90;99.90;;;;;;5083746;28;19904;-78
2021/06/15 00:27:48;;;;;;;;;;;16.80;99.90;;;;;;5083119;28;19913;-78
2021/06/15 00:30:16;;;;;;;;;;;16.80;99.90;;;;;;5081379;28;20367;-79
2021/06/15 00:32:41;;;;;;;;;;;16.80;99.90;;;;;;5081414;28;19957;-79
2021/06/15 00:35:07;;;;;;;;;;;16.80;99.90;;;;;;5081558;28;19970;-78
2021/06/15 00:37:32;;;;;;;;;;;16.70;99.90;;;;;;5082573;28;19975;-79
2021/06/15 00:39:58;;;;;;;;;;;16.60;99.90;;;;;;5082519;28;19911;-78
2021/06/15 00:42:23;;;;;;;;;;;16.60;99.90;;;;;;5082390;28;20392;-78
2021/06/15 00:44:49;;;;;;;;;;;16.50;99.90;;;;;;5082494;28;19956;-80
2021/06/15 00:47:15;;;;;;;;;;;16.50;99.90;;;;;;5083123;28;19908;-78
2021/06/15 00:49:40;;;;;;;;;;;16.50;99.90;;;;;;5081236;28;19908;-79
2021/06/15 00:52:06;;;;;;;;;;;16.50;99.90;;;;;;5082419;28;19928;-78
2021/06/15 00:54:32;;;;;;;;;;;16.40;99.90;;;;;;5081303;28;19905;-79
2021/06/15 00:56:57;;;;;;;;;;;16.30;99.90;;;;;;5081948;28;19999;-78
2021/06/15 00:59:23;;;;;;;;;;;16.30;99.90;;;;;;5080460;28;19904;-78
2021/06/15 01:01:48;;;;;;;;;;;16.30;99.90;;;;;;5080303;28;20343;-78
2021/06/15 01:04:15;;;;;;;;;;;16.20;99.90;;;;;;5080819;28;19905;-78
2021/06/15 01:06:40;;;;;;;;;;;16.20;99.90;;;;;;5081210;28;19914;-78
2021/06/15 01:09:11;;;;;;;;;;;16.20;99.90;;;;;;5081802;28;19931;-78
2021/06/15 01:11:50;;;;;;;;;;;16.30;99.90;;;;;;5081934;28;19905;-78
2021/06/15 01:14:22;;;;;;;;;;;16.20;99.90;;;;;;5080980;28;19904;-79
2021/06/15 01:16:54;;;;;;;;;;;16.20;99.90;;;;;;5080102;28;19950;-78
2021/06/15 01:19:23;;;;;;;;;;;16.10;99.90;;;;;;5080252;28;19927;-79
2021/06/15 01:22:07;;;;;;;;;;;16.10;99.90;;;;;;5081794;28;19905;-78
2021/06/15 01:24:35;;;;;;;;;;;16.10;99.90;;;;;;5080742;28;19909;-78
2021/06/15 01:27:07;;;;;;;;;;;16.00;99.90;;;;;;5081646;28;19966;-78
2021/06/15 01:29:38;;;;;;;;;;;16.00;99.90;;;;;;5085443;28;19951;-79
2021/06/15 01:32:08;;;;;;;;;;;15.90;99.90;;;;;;5084111;28;19912;-78
2021/06/15 01:34:37;;;;;;;;;;;15.90;99.90;;;;;;5083407;28;19934;-78
2021/06/15 01:37:21;;;;;;;;;;;15.80;99.90;;;;;;5084078;28;19904;-78
2021/06/15 01:39:52;;;;;;;;;;;15.80;99.90;;;;;;5083683;28;19911;-78
2021/06/15 01:42:38;;;;;;;;;;;15.70;99.90;;;;;;5085675;28;19935;-78
2021/06/15 01:45:05;;;;;;;;;;;15.70;99.90;;;;;;5080914;28;19987;-78
2021/06/15 01:47:31;;;;;;;;;;;15.70;99.90;;;;;;5083574;28;19919;-79
2021/06/15 01:50:02;;;;;;;;;;;15.70;99.90;;;;;;5085582;28;19905;-79
2021/06/15 01:52:30;;;;;;;;;;;15.70;99.90;;;;;;5085802;28;19904;-78
2021/06/15 01:54:56;;;;;;;;;;;15.60;99.90;;;;;;5085808;28;19964;-78
2021/06/15 01:57:22;;;;;;;;;;;15.60;99.90;;;;;;5083741;28;19904;-78
2021/06/15 01:59:49;;;;;;;;;;;15.60;99.90;;;;;;5084862;28;19927;-78
2021/06/15 02:02:16;;;;;;;;;;;15.50;99.90;;;;;;5083417;28;19936;-78
2021/06/15 02:04:44;;;;;;;;;;;15.50;99.90;;;;;;5085315;28;20287;-80
2021/06/15 02:07:12;;;;;;;;;;;15.50;99.90;;;;;;5082198;28;19972;-78
2021/06/15 02:09:39;;;;;;;;;;;15.40;99.90;;;;;;5081978;28;19910;-78
2021/06/15 02:12:04;;;;;;;;;;;15.40;99.90;;;;;;5083249;28;19910;-78
2021/06/15 02:14:32;;;;;;;;;;;15.40;99.90;;;;;;5082453;28;19948;-78
2021/06/15 02:16:59;;;;;;;;;;;15.40;99.90;;;;;;5080846;28;19912;-78
2021/06/15 02:19:24;;;;;;;;;;;15.30;99.90;;;;;;5080387;28;19904;-78
2021/06/15 02:22:10;;;;;;;;;;;15.30;99.90;;;;;;5082665;28;20264;-78
2021/06/15 02:24:47;;;;;;;;;;;15.40;99.90;;;;;;5081538;28;19932;-78
2021/06/15 02:27:14;;;;;;;;;;;15.40;99.90;;;;;;5081013;28;20398;-78
2021/06/15 02:29:40;;;;;;;;;;;15.30;99.90;;;;;;5079499;28;20251;-78
2021/06/15 02:32:08;;;;;;;;;;;15.30;99.90;;;;;;5077595;28;19904;-78
2021/06/15 02:34:35;;;;;;;;;;;15.20;99.90;;;;;;5078624;28;20272;-78
2021/06/15 02:37:01;;;;;;;;;;;15.20;99.90;;;;;;5078537;28;19908;-78
2021/06/15 02:39:29;;;;;;;;;;;15.20;99.90;;;;;;5078784;28;19904;-78
2021/06/15 02:41:55;;;;;;;;;;;15.20;99.90;;;;;;5076823;28;19957;-78
2021/06/15 02:44:23;;;;;;;;;;;15.20;99.90;;;;;;5076629;28;20314;-78
2021/06/15 02:46:50;;;;;;;;;;;15.20;99.90;;;;;;5077989;28;19909;-78
2021/06/15 02:49:18;;;;;;;;;;;15.10;99.90;;;;;;5080452;28;19911;-78
2021/06/15 02:51:50;;;;;;;;;;;15.10;99.90;;;;;;5082035;28;19904;-78
2021/06/15 02:54:18;;;;;;;;;;;15.20;99.90;;;;;;5081500;28;19905;-78
2021/06/15 02:56:46;;;;;;;;;;;15.20;99.90;;;;;;5082540;28;19950;-78
2021/06/15 02:59:11;;;;;;;;;;;15.20;99.90;;;;;;5077580;28;20330;-78
2021/06/15 03:01:37;;;;;;;;;;;15.10;99.90;;;;;;5077071;28;19904;-77
2021/06/15 03:04:03;;;;;;;;;;;15.10;99.90;;;;;;5080703;28;19904;-78
2021/06/15 03:06:28;;;;;;;;;;;15.10;99.90;;;;;;5076558;28;19926;-77
2021/06/15 03:08:54;;;;;;;;;;;15.10;99.90;;;;;;5078471;28;19959;-77
2021/06/15 03:11:21;;;;;;;;;;;15.10;99.90;;;;;;5081324;28;19905;-77
2021/06/15 03:13:52;;;;;;;;;;;15.10;99.90;;;;;;5081124;28;19926;-78
2021/06/15 03:16:21;;;;;;;;;;;15.10;99.90;;;;;;5080649;28;19904;-77
2021/06/15 03:19:05;;;;;;;;;;;15.00;99.90;;;;;;5082579;28;19935;-78
2021/06/15 03:21:32;;;;;;;;;;;15.00;99.90;;;;;;5080478;28;19915;-77
2021/06/15 03:24:02;;;;;;;;;;;15.00;99.90;;;;;;5081561;28;19905;-78
2021/06/15 03:26:30;;;;;;;;;;;15.10;99.90;;;;;;5082316;28;19999;-79
2021/06/15 03:28:57;;;;;;;;;;;15.10;99.90;;;;;;5080805;28;19934;-79
2021/06/15 03:31:24;;;;;;;;;;;15.10;99.90;;;;;;5080202;28;19904;-79
2021/06/15 03:33:50;;;;;;;;;;;15.20;99.90;;;;;;5081462;28;19908;-79
2021/06/15 03:36:18;;;;;;;;;;;15.30;99.90;;;;;;5078892;28;19904;-79
2021/06/15 03:38:45;;;;;;;;;;;15.30;99.90;;;;;;5078865;28;20378;-76
2021/06/15 03:41:11;;;;;;;;;;;15.30;99.90;;;;;;5079533;28;19904;-78
2021/06/15 03:43:36;;;;;;;;;;;15.30;99.90;;;;;;5078295;28;19915;-79
2021/06/15 03:46:09;;;;;;;;;;;15.20;99.90;;;;;;5080498;28;19904;-79
2021/06/15 03:48:35;;;;;;;;;;;15.20;99.90;;;;;;5078535;28;19943;-78
2021/06/15 03:51:01;;;;;;;;;;;15.20;99.90;;;;;;5077685;28;19914;-76
2021/06/15 03:53:30;;;;;;;;;;;15.20;99.90;;;;;;5079416;28;19948;-76
2021/06/15 03:55:57;;;;;;;;;;;15.20;99.90;;;;;;5077851;28;20003;-77
2021/06/15 03:58:22;;;;;;;;;;;15.20;99.90;;;;;;5076613;28;19904;-80
2021/06/15 04:00:49;;;;;;;;;;;15.20;99.90;;;;;;5077237;28;19912;-77
2021/06/15 04:03:15;;;;;;;;;;;15.30;99.90;;;;;;5074275;28;19911;-76
2021/06/15 04:05:42;;;;;;;;;;;15.30;99.90;;;;;;5072824;28;19961;-76
2021/06/15 04:08:11;;;;;;;;;;;15.30;99.90;;;;;;5072842;28;20011;-78
2021/06/15 04:10:38;;;;;;;;;;;15.40;99.90;;;;;;5074236;28;19905;-78
2021/06/15 04:13:04;;;;;;;;;;;15.40;99.90;;;;;;5075274;28;19908;-77
2021/06/15 04:15:31;;;;;;;;;;;15.40;99.90;;;;;;5073971;28;19961;-78
2021/06/15 04:17:59;;;;;;;;;;;15.50;99.90;;;;;;5073837;28;19912;-79
2021/06/15 04:20:26;;;;;;;;;;;15.60;99.90;;;;;;5074828;28;19993;-78
2021/06/15 04:22:53;;;;;;;;;;;15.70;99.90;;;;;;5075242;28;19950;-78
2021/06/15 04:25:21;;;;;;;;;;;15.80;99.90;;;;;;5073467;28;19905;-77
2021/06/15 04:27:46;;;;;;;;;;;15.80;99.90;;;;;;5073470;28;20310;-78
2021/06/15 04:30:14;;;;;;;3.92;3.13;;;15.90;99.90;;;;;;5072402;28;19905;-78
2021/06/15 04:32:58;;;;;;;5.18;3.28;;;16.00;99.90;;;;;;5091803;28;20032;-78
2021/06/15 04:35:28;;;;;;;7.88;3.67;;;16.10;99.90;;;;;;5074686;28;20025;-78
2021/06/15 04:37:55;;;;;;;;;;;16.20;99.90;;;;;;5074646;28;19908;-78
2021/06/15 04:40:35;;;;;;;6.10;3.55;;;16.60;99.90;;;;;;5072564;28;19904;-78
2021/06/15 04:43:39;;;;;;;4.78;3.25;;;19.30;99.90;;;;;;5074688;28;20169;-77
2021/06/15 04:46:25;;;;;;;3.45;3.15;;;20.40;99.90;;;;;;5072083;28;20483;-78
2021/06/15 04:48:55;;;;;;;5.57;2.92;;;19.60;99.90;;;;;;5072796;28;20098;-78
2021/06/15 04:51:22;;;;;;;6.22;2.85;;;21.80;99.90;;;;;;5074837;28;20186;-78
2021/06/15 04:53:48;;;;;;;2.53;2.20;;;24.40;99.90;;;;;;5076044;28;20021;-78
2021/06/15 04:56:17;;;;;;;7.45;3.83;;;25.50;99.90;;;;;;5078551;28;20020;-78
2021/06/15 04:58:44;;;;;;;3.45;2.40;;;25.30;99.90;;;;;;5077377;28;19904;-77
2021/06/15 05:01:11;;;;;;;5.05;2.50;;;25.10;99.90;;;;;;5076359;28;20355;-79
2021/06/15 05:03:37;;;;;;;4.80;2.60;;;23.60;99.90;;;;;;5077745;28;19939;-77
2021/06/15 05:06:05;;;;;;;3.97;2.88;;;22.40;99.90;;;;;;5079434;28;20029;-77
2021/06/15 05:08:35;;;;;;;5.18;2.70;;;21.60;99.90;;;;;;5080201;28;20390;-81
2021/06/15 05:11:03;;;;;;;8.57;3.15;;;21.10;99.90;;;;;;5075674;28;19905;-77
2021/06/15 05:13:30;;;;;;;4.50;3.20;;;21.10;99.90;;;;;;5077273;28;20040;-79
2021/06/15 05:15:57;;;;;;;;;;;21.40;99.90;;;;;;5078910;28;19936;-81
2021/06/15 05:18:23;;;;;;;4.00;3.58;;;21.70;99.90;;;;;;5074796;28;20067;-79
2021/06/15 05:20:49;;;;;;;5.15;3.22;;;22.30;99.90;;;;;;5079317;28;20040;-78
2021/06/15 05:23:20;;;;;;;5.93;3.17;;;22.90;99.90;;;;;;5082477;28;19908;-77
2021/06/15 05:25:47;;;;;;;7.90;2.92;;;24.20;99.90;;;;;;5082832;28;20025;-78
2021/06/15 05:28:13;;;;;;;5.77;3.10;;;23.60;99.90;;;;;;5081590;28;20028;-78
2021/06/15 05:30:39;;;;;;;8.00;4.20;;;23.00;99.90;;;;;;5081805;28;19911;-80
2021/06/15 05:33:05;;;;;;;5.45;3.15;;;23.20;99.90;;;;;;5078983;28;20065;-78
2021/06/15 05:35:30;;;;;;;4.90;3.63;;;23.80;99.90;;;;;;5098879;28;20808;-79
2021/06/15 05:37:56;;;;;;;6.90;3.23;;;26.20;99.90;;;;;;5098536;28;20483;-78
2021/06/15 05:40:22;;;;;;;7.28;3.45;;;29.60;99.90;;;;;;5081188;28;20028;-79
2021/06/15 05:42:48;;;;;;;7.13;3.50;;;31.70;98.10;;;;;;5080668;28;20078;-78
2021/06/15 05:45:15;;;;;;;6.07;3.07;;;33.30;93.90;;;;;;5083138;28;20399;-78
2021/06/15 05:47:43;;;;;;;8.48;3.80;;;34.50;90.50;;;;;;5080401;28;20499;-78
2021/06/15 05:50:09;;;;;;;3.97;3.08;;;34.80;84.00;;;;;;5081221;28;20017;-79
2021/06/15 05:52:35;;;;;;;3.42;2.90;;;33.40;84.90;;;;;;5081737;28;20017;-80
2021/06/15 05:55:02;;;;;;;3.45;2.63;;;31.40;86.00;;;;;;5080557;28;20120;-80
2021/06/15 05:57:30;;;;;;;13.57;3.97;;;30.40;90.70;;;;;;5080724;28;20467;-79
2021/06/15 05:59:56;;;;;;;4.55;3.03;;;30.10;86.90;;;;;;5080480;28;20025;-78
2021/06/15 06:02:22;;;;;;;;;;;30.70;86.00;;;;;;5098074;28;19905;-79
2021/06/15 06:05:02;;;;;;;4.37;2.80;;;29.90;89.00;;;;;;5078967;28;19912;-79
2021/06/15 06:10:12;;;;;;;;;;;30.30;84.00;;;;;;5080346;28;20051;-79
2021/06/15 06:12:38;;;;;;;;;;;30.40;85.10;;;;;;5079454;28;20024;-78
2021/06/15 06:15:05;;;;;;;4.40;3.20;;;28.50;89.00;;;;;;5084193;28;20028;-79
2021/06/15 06:17:31;;;;;;;;;;;28.00;90.40;;;;;;5082775;28;20088;-78
2021/06/15 06:19:57;;;;;;;;;;;27.60;90.80;;;;;;5083868;28;20066;-79
2021/06/15 06:22:22;;;;;;;;;;;28.50;88.70;;;;;;5083220;28;20047;-78
2021/06/15 06:24:48;;;;;;;;;;;30.40;84.90;;;;;;5087095;28;20065;-79
2021/06/15 06:27:14;;;;;;;;;;;32.90;82.30;;;;;;5088638;28;20039;-80
2021/06/15 06:29:39;;;;;;;;;;;34.40;78.90;;;;;;5087027;28;20039;-80
2021/06/15 06:32:05;;;;;;;6.40;3.20;;;33.80;77.00;;;;;;5086831;28;20039;-78
2021/06/15 06:34:31;;;;;;;14.00;2.40;;;34.50;77.10;;;;;;5089360;28;20474;-78
2021/06/15 06:36:58;;;;;;;7.55;3.10;;;34.90;71.00;;;;;;5099836;28;20051;-79
2021/06/15 06:39:23;;;;;;;;;;;34.20;74.40;;;;;;5102327;28;20127;-81
2021/06/15 06:41:49;;;;;;;3.50;2.30;;;34.70;70.50;;;;;;5106401;28;20021;-79
2021/06/15 06:44:16;;;;;;;4.20;2.33;;;34.80;71.20;;;;;;5103971;28;19961;-79
2021/06/15 06:46:41;;;;;;;;;;;35.80;70.40;;;;;;5103362;28;19908;-81
2021/06/15 06:49:07;;;;;;;;;;;35.50;69.80;;;;;;5091869;28;20367;-80
2021/06/15 06:51:33;;;;;;;;;;;35.00;68.60;;;;;;5086146;28;19960;-79
2021/06/15 06:53:59;;;;;;;;;;;34.20;66.50;;;;;;5085415;28;20251;-80
2021/06/15 06:56:26;;;;;;;;;;;33.60;68.50;;;;;;5090571;28;20069;-78
2021/06/15 06:58:51;;;;;;;6.85;2.45;;;33.70;68.20;;;;;;5084719;28;20003;-80
2021/06/15 07:01:17;;;;;;;2.00;1.80;;;34.40;69.60;;;;;;5098083;28;19919;-80
2021/06/15 07:03:42;;;;;;;5.57;2.40;;;35.20;67.20;;;;;;5107277;28;20058;-80
2021/06/15 07:06:08;;;;;;;6.15;2.75;;;35.20;67.10;;;;;;5104762;28;20391;-80
2021/06/15 07:08:34;;;;;;;3.65;3.05;;;33.70;68.30;;;;;;5104204;28;20233;-78
2021/06/15 07:10:59;;;;;;;7.40;2.60;;;31.10;73.00;;;;;;5095394;28;20036;-79
2021/06/15 07:13:25;;;;;;;7.50;3.10;;;30.00;74.00;;;;;;5099588;28;20074;-78
2021/06/15 07:15:51;;;;;;;6.20;2.90;;;29.50;72.50;;;;;;5086719;28;20014;-78
2021/06/15 07:18:17;;;;;;;3.80;2.70;;;29.80;77.00;;;;;;5101093;28;20051;-80
2021/06/15 07:20:42;;;;;;;3.85;2.90;;;29.10;77.30;;;;;;5097464;28;20114;-78
2021/06/15 07:23:08;;;;;;;6.22;3.08;;;28.70;78.20;;;;;;5087440;28;20175;-79
2021/06/15 07:25:34;;;;;;;5.13;2.67;;;28.60;80.50;;;;;;5083299;28;19909;-79
2021/06/15 07:27:59;;;;;;;;;;;28.20;84.60;;;;;;5084447;28;20025;-78
2021/06/15 07:30:25;;;;;;;;;;;28.30;82.70;;;;;;5084296;28;20268;-78
2021/06/15 07:32:55;;;;;;;;;;;28.50;81.90;;;;;;5084638;28;19904;-79
2021/06/15 07:35:21;;;;;;;;;;;29.50;79.60;;;;;;5084546;28;19909;-79
2021/06/15 07:37:47;;;;;;;;;;;30.50;78.20;;;;;;5085140;28;19942;-79
2021/06/15 07:40:12;;;;;;;;;;;32.10;79.20;;;;;;5097796;28;19915;-78
2021/06/15 07:42:38;;;;;;;;;;;32.00;75.30;;;;;;5087704;28;20374;-78
2021/06/15 07:45:04;;;;;;;;;;;31.30;75.00;;;;;;5085510;28;20382;-78
2021/06/15 07:47:29;;;;;;;;;;;30.70;77.50;;;;;;5084661;28;20011;-77
2021/06/15 07:49:55;;;;;;;;;;;30.20;77.20;;;;;;5082761;28;19904;-78
2021/06/15 07:52:27;;;;;;;;;;;29.40;80.40;;;;;;5084146;28;19915;-78
2021/06/15 07:54:52;;;;;;;;;;;29.90;79.30;;;;;;5085107;28;19909;-78
2021/06/15 07:57:18;;;;;;;;;;;30.10;77.50;;;;;;5082023;28;20019;-79
2021/06/15 07:59:43;;;;;;;;;;;30.30;79.70;;;;;;5083339;28;19909;-77
2021/06/15 08:02:09;;;;;;;;;;;31.00;76.40;;;;;;5083604;28;19916;-77
2021/06/15 08:04:34;;;;;;;;;;;31.20;78.70;;;;;;5084154;28;19908;-78
2021/06/15 08:07:00;;;;;;;;;;;30.90;78.80;;;;;;5083592;28;19939;-77
2021/06/15 08:09:25;;;;;;;;;;;30.30;84.30;;;;;;5082808;28;19968;-79
2021/06/15 08:11:51;;;;;;;;;;;29.80;81.70;;;;;;5082805;28;19908;-78
2021/06/15 08:14:16;;;;;;;;;;;29.70;78.60;;;;;;5083804;28;20165;-78
2021/06/15 08:16:41;;;;;;;;;;;29.70;81.60;;;;;;5084197;28;19912;-77
2021/06/15 08:19:07;;;;;;;;;;;29.80;81.60;;;;;;5083178;28;19958;-78
2021/06/15 08:21:32;;;;;;;;;;;29.60;79.70;;;;;;5098302;28;19915;-78
2021/06/15 08:23:58;;;;;;;;;;;29.40;80.20;;;;;;5102882;28;19910;-79
2021/06/15 08:26:23;;;;;;;;;;;29.50;84.20;;;;;;5102005;28;24052;-79
2021/06/15 08:28:49;;;;;;;6.50;3.40;;;29.80;82.30;;;;;;5103777;28;24068;-79
2021/06/15 08:31:14;;;;;;;7.17;3.37;;;30.40;79.60;;;;;;5102091;28;20495;-79
2021/06/15 08:33:40;;;;;;;6.37;2.80;;;29.80;79.30;;;;;;5105614;28;20047;-77
2021/06/15 08:36:06;;;;;;;4.07;2.50;;;29.80;81.10;;;;;;5104088;28;20448;-79
2021/06/15 08:38:31;;;;;;;8.57;2.77;;;30.50;83.30;;;;;;5104901;28;20031;-80
2021/06/15 08:40:57;;;;;;;5.07;3.47;;;31.00;75.90;;;;;;5103976;28;20039;-79
2021/06/15 08:43:22;;;;;;;6.23;3.63;;;31.50;73.60;;;;;;5105058;28;20132;-79
2021/06/15 08:45:49;;;;;;;3.20;2.40;;;33.30;74.10;;;;;;5104773;28;20036;-77
2021/06/15 08:48:14;;;;;;;;;;;34.30;70.90;;;;;;5104483;28;20444;-78
2021/06/15 08:50:40;;;;;;;;;;;34.60;72.00;;;;;;5103006;28;19912;-79
2021/06/15 08:53:10;;;;;;;5.75;2.53;;;34.40;74.10;;;;;;5103408;28;20497;-78
2021/06/15 08:55:36;;;;;;;;;;;35.20;76.40;;;;;;5105426;28;20395;-79
2021/06/15 08:58:02;;;;;;;;;;;34.70;67.00;;;;;;5102948;28;20049;-79
2021/06/15 09:00:27;;;;;;;;;;;34.20;67.70;;;;;;5095751;28;20133;-78
2021/06/15 09:02:53;;;;;;;;;;;34.40;66.40;;;;;;5103173;28;20066;-77
2021/06/15 09:05:18;;;;;;;;;;;34.00;66.00;;;;;;5103868;28;20042;-79
2021/06/15 09:07:56;;;;;;;;;;;33.20;66.50;;;;;;5101708;28;20065;-78
2021/06/15 09:10:25;;;;;;;;;;;32.60;67.40;;;;;;5093252;28;20508;-81
2021/06/15 09:12:51;;;;;;;;;;;32.00;71.30;;;;;;5087045;28;20024;-79
2021/06/15 09:15:18;;;;;;;;;;;32.10;68.80;;;;;;5083908;28;20042;-80
2021/06/15 09:17:45;;;;;;;;;;;32.60;73.30;;;;;;5085974;28;20031;-77
2021/06/15 09:20:12;;;;;;;;;;;32.50;71.80;;;;;;5083075;28;20020;-78
2021/06/15 09:22:39;;;;;;;;;;;32.60;70.60;;;;;;5084908;28;20035;-78
2021/06/15 09:25:06;;;;;;;;;;;32.60;72.90;;;;;;5081668;28;20047;-79
2021/06/15 09:27:32;;;;;;;;;;;32.90;65.80;;;;;;5082546;28;20029;-77
2021/06/15 09:29:59;;;;;;;;;;;34.80;65.80;;;;;;5085129;28;20375;-78
2021/06/15 09:32:26;;;;;;;;;;;35.80;66.60;;;;;;5084594;28;19911;-79
2021/06/15 09:34:52;;;;;;;;;;;35.40;63.10;;;;;;5086755;28;20038;-79
2021/06/15 09:37:34;;;;;;;5.30;2.10;;;36.10;60.70;;;;;;5084153;28;20023;-80
2021/06/15 09:40:07;;;;;;;4.07;1.80;;;35.60;62.20;;;;;;5084990;28;20497;-78
2021/06/15 09:42:32;;;;;;;2.83;1.58;;;35.60;60.70;;;;;;5084656;28;20036;-78
2021/06/15 09:45:02;;;;;;;1.83;1.40;;;35.50;59.20;;;;;;5086770;28;20024;-77
2021/06/15 09:47:27;;;;;;;3.90;1.95;;;34.90;60.70;;;;;;5088550;28;20027;-79
2021/06/15 09:49:55;;;;;;;1.70;1.60;;;34.30;60.00;;;;;;5090581;28;20036;-79
2021/06/15 09:52:24;;;;;;;2.22;1.70;;;34.40;61.10;;;;;;5092124;28;20012;-78
2021/06/15 09:55:06;;;;;;;3.20;1.75;;;34.90;63.30;;;;;;5086119;28;20016;-78
2021/06/15 09:57:34;;;;;;;4.30;1.90;;;34.30;59.30;;;;;;5087551;28;20035;-79
2021/06/15 10:00:03;;;;;;;;;;;34.70;61.20;;;;;;5089122;28;20063;-80
2021/06/15 10:02:28;;;;;;;;;;;35.20;61.70;;;;;;5086780;28;20050;-79
2021/06/15 10:04:54;;;;;;;;;;;35.30;59.00;;;;;;5084933;28;20020;-79
2021/06/15 10:07:29;;;;;;;;;;;33.80;59.30;;;;;;5087096;28;20062;-79
2021/06/15 10:09:56;;;;;;;;;;;34.60;63.30;;;;;;5089034;28;20018;-79
2021/06/15 10:12:22;;;;;;;;;;;35.00;59.40;;;;;;5087352;28;20042;-79
2021/06/15 10:14:48;;;;;;;;;;;34.70;59.30;;;;;;5091895;28;19912;-81
2021/06/15 10:17:13;;;;;;;;;;;34.80;61.30;;;;;;5089549;28;20024;-81
2021/06/15 10:19:40;;;;;;;;;;;35.20;61.60;;;;;;5089074;28;20036;-80
2021/06/15 10:22:08;;;;;;;2.67;1.52;;;34.70;60.70;;;;;;5090559;28;20038;-78
2021/06/15 10:24:35;;;;;;;3.15;1.65;;;34.10;61.00;;;;;;5091914;28;20024;-79
2021/06/15 10:27:03;;;;;;;3.13;1.83;;;34.40;60.10;;;;;;5088800;28;19904;-81
2021/06/15 10:29:29;;;;;;;3.83;2.00;;;34.70;59.80;;;;;;5087072;28;20054;-78
2021/06/15 10:31:56;;;;;;;1.70;1.50;;;34.80;58.70;;;;;;5090323;28;20403;-81
2021/06/15 10:34:49;;;;;;;4.40;1.55;;;35.50;63.20;;;;;;5090207;28;20086;-80
2021/06/15 10:37:37;;;;;;;;;;;36.30;59.30;;;;;;5087813;28;20094;-80
2021/06/15 10:40:11;;;;;;;4.93;2.03;;;37.30;57.20;;;;;;5088487;28;20053;-80
2021/06/15 10:42:37;;;;;;;2.60;1.73;;;37.30;59.30;;;;;;5087989;28;20498;-80
2021/06/15 10:45:12;;;;;;;2.65;1.58;;;37.60;58.40;;;;;;5089169;28;20028;-78
2021/06/15 10:47:58;;;;;;;1.88;1.65;;;37.00;57.10;;;;;;5088333;28;20031;-80
2021/06/15 10:50:44;;;;;;;3.38;1.92;;;37.40;56.20;;;;;;5088209;28;20028;-80
2021/06/15 10:53:11;;;;;;;5.30;2.28;;;37.20;62.20;;;;;;5089603;28;20072;-81
2021/06/15 10:55:46;;;;;;;2.15;1.92;;;37.00;56.20;;;;;;5087726;28;20028;-81
2021/06/15 10:58:35;;;;;;;3.43;2.10;;;37.50;55.80;;;;;;5087207;28;20027;-80
2021/06/15 11:01:27;;;;;;;2.63;1.98;;;37.80;55.90;;;;;;5094842;28;20027;-81
2021/06/15 11:03:55;;;;;;;2.72;1.65;;;36.70;57.90;;;;;;5098575;28;20013;-81
2021/06/15 11:06:29;;;;;;;3.95;1.98;;;36.50;61.70;;;;;;5099007;28;20013;-80
2021/06/15 11:09:13;;;;;;;3.35;1.75;;;35.50;56.40;;;;;;5096373;28;20547;-79
2021/06/15 11:11:38;;;;;;;2.47;1.73;;;35.00;60.20;;;;;;5097604;28;20431;-79
2021/06/15 11:14:09;;;;;;;3.78;1.95;;;34.80;61.10;;;;;;5097534;28;20017;-78
2021/06/15 11:16:43;;;;;;;3.00;1.55;;;35.00;57.60;;;;;;5093496;28;20024;-79
2021/06/15 11:19:12;;;;;;;3.10;2.08;;;34.90;63.70;;;;;;5098453;28;20017;-78
2021/06/15 11:21:44;;;;;;;;;;;33.70;58.30;;;;;;5097005;28;20024;-77
2021/06/15 11:24:28;;;;;;;;;;;33.00;63.20;;;;;;5096864;28;19940;-78
2021/06/15 11:26:54;;;;;;;;;;;32.50;62.50;;;;;;5086783;28;19908;-80
2021/06/15 11:29:37;;;;;;;;;;;32.20;65.10;;;;;;5087706;28;19991;-80
2021/06/15 11:32:17;;;;;;;;;;;32.00;64.30;;;;;;5086208;28;19908;-78
2021/06/15 11:35:03;;;;;;;;;;;32.00;64.80;;;;;;5085234;28;19975;-78
2021/06/15 11:37:32;;;;;;;;;;;32.40;67.30;;;;;;5087099;28;20003;-79
2021/06/15 11:40:10;;;;;;;;;;;32.40;63.70;;;;;;5089476;28;20286;-79
2021/06/15 11:42:36;;;;;;;;;;;32.60;62.70;;;;;;5088812;28;19936;-79
2021/06/15 11:45:25;;;;;;;;;;;32.30;60.40;;;;;;5090595;28;19955;-79
2021/06/15 11:47:52;;;;;;;;;;;32.50;59.50;;;;;;5079985;28;19915;-79
2021/06/15 11:50:27;;;;;;;;;;;32.70;66.20;;;;;;5086805;28;19904;-79
2021/06/15 11:52:58;;;;;;;;;;;32.30;64.10;;;;;;5087597;28;20351;-80
2021/06/15 11:55:36;;;;;;;;;;;32.50;60.90;;;;;;5085420;28;19904;-78
2021/06/15 11:58:04;;;;;;;;;;;32.20;62.10;;;;;;5085062;28;19914;-78
2021/06/15 12:00:30;;;;;;;;;;;32.20;60.90;;;;;;5088793;28;19932;-79
2021/06/15 12:03:03;;;;;;;;;;;32.10;67.30;;;;;;5085123;28;20358;-79
2021/06/15 12:05:28;;;;;;;;;;;32.40;62.00;;;;;;5085511;28;19904;-79
2021/06/15 12:07:54;;;;;;;;;;;32.20;64.90;;;;;;5088326;28;19909;-78
2021/06/15 12:10:23;;;;;;;;;;;31.80;59.40;;;;;;5086217;28;19904;-79
2021/06/15 12:12:54;;;;;;;;;;;31.70;63.00;;;;;;5085764;28;19930;-78
2021/06/15 12:15:32;;;;;;;;;;;32.30;63.80;;;;;;5084682;28;19904;-79
2021/06/15 12:17:57;;;;;;;;;;;32.20;63.40;;;;;;5085560;28;19908;-78
2021/06/15 12:20:24;;;;;;;;;;;32.70;65.90;;;;;;5084836;28;19915;-79
2021/06/15 12:22:50;;;;;;;;;;;32.90;62.10;;;;;;5094834;28;19928;-78
2021/06/15 12:25:16;;;;;;;;;;;32.90;65.70;;;;;;5095628;28;20387;-77
2021/06/15 12:27:41;;;;;;;;;;;32.60;65.50;;;;;;5090787;28;19922;-78
2021/06/15 12:30:07;;;;;;;;;;;32.40;63.80;;;;;;5076766;28;19904;-79
2021/06/15 12:32:43;;;;;;;;;;;32.40;65.30;;;;;;5080192;28;19909;-79
2021/06/15 12:35:18;;;;;;;;;;;32.30;67.80;;;;;;5086866;28;19904;-80
2021/06/15 12:37:44;;;;;;;;;;;32.30;61.00;;;;;;5093073;28;20302;-80
2021/06/15 12:40:10;;;;;;;;;;;32.50;66.00;;;;;;5095736;28;19904;-79
2021/06/15 12:42:36;;;;;;;;;;;32.40;65.40;;;;;;5096798;28;19903;-80
2021/06/15 12:45:01;;;;;;;;;;;32.70;63.00;;;;;;5106266;28;19922;-80
2021/06/15 12:47:28;;;;;;;;;;;32.60;62.80;;;;;;5107164;28;19915;-78
2021/06/15 12:49:54;;;;;;;;;;;32.40;62.40;;;;;;5088325;28;19922;-81
2021/06/15 12:52:20;;;;;;;;;;;32.30;62.70;;;;;;5106216;28;20271;-78
2021/06/15 12:54:47;;;;;;;;;;;32.40;65.90;;;;;;5104949;28;20307;-81
2021/06/15 12:57:16;;;;;;;;;;;32.20;65.80;;;;;;5104378;28;19911;-79
2021/06/15 12:59:43;;;;;;;;;;;32.30;65.70;;;;;;5105047;28;20267;-79
2021/06/15 13:02:12;;;;;;;;;;;32.60;67.40;;;;;;5106449;28;19963;-80
2021/06/15 13:04:43;;;;;;;;;;;32.70;67.30;;;;;;5105426;28;19904;-80
2021/06/15 13:07:11;;;;;;;;;;;33.00;64.70;;;;;;5103741;28;19912;-79
2021/06/15 13:09:36;;;;;;;;;;;33.00;68.10;;;;;;5103933;28;20478;-76
2021/06/15 13:12:04;;;;;;;;;;;33.20;66.70;;;;;;5104139;28;19911;-79
2021/06/15 13:14:31;;;;;;;;;;;32.80;62.40;;;;;;5105120;28;19904;-79
2021/06/15 13:17:01;;;;;;;;;;;32.90;60.20;;;;;;5105580;28;19914;-79
2021/06/15 13:19:37;;;;;;;;;;;32.80;61.70;;;;;;5103053;28;20385;-80
2021/06/15 13:22:02;;;;;;;;;;;32.30;61.60;;;;;;5102798;28;19908;-80
2021/06/15 13:24:40;;;;;;;;;;;32.30;61.20;;;;;;5102935;28;19929;-81
2021/06/15 13:27:18;;;;;;;;;;;32.50;63.40;;;;;;5103479;28;19904;-78
2021/06/15 13:29:44;;;;;;;;;;;32.20;62.40;;;;;;5103714;28;19904;-79
2021/06/15 13:32:19;;;;;;;;;;;32.50;65.30;;;;;;5104948;28;19927;-79
2021/06/15 13:34:56;;;;;;;;;;;32.40;60.70;;;;;;5104730;28;19904;-80
2021/06/15 13:37:26;;;;;;;;;;;32.20;63.80;;;;;;5106053;28;19908;-78
2021/06/15 13:39:51;;;;;;;;;;;32.00;62.80;;;;;;5103313;28;19904;-78
2021/06/15 13:42:22;;;;;;;;;;;32.30;66.40;;;;;;5105456;28;20367;-80
2021/06/15 13:44:59;;;;;;;;;;;32.40;62.00;;;;;;5104065;28;19912;-80
2021/06/15 13:47:25;;;;;;;;;;;32.20;61.10;;;;;;5103978;28;19930;-78
2021/06/15 13:49:50;;;;;;;;;;;32.20;67.50;;;;;;5103507;28;20352;-80
2021/06/15 13:52:16;;;;;;;5.97;1.73;;;32.20;62.80;;;;;;5101129;28;19904;-79
2021/06/15 13:54:41;;;;;;;2.50;1.60;;;31.80;62.20;;;;;;5102866;28;20107;-80
2021/06/15 13:57:07;;;;;;;;;;;31.90;61.90;;;;;;5101229;28;20016;-81
2021/06/15 13:59:32;;;;;;;;;;;31.90;62.50;;;;;;5100133;28;20264;-80